sensor_id;sensor_type;location;lat;lon;timestamp;pressure;altitude;pressure_sealevel;temperature;humidity
32197;BME280;18697;42.770;23.400;2023-05-25T00:01:23;95554.63;;;21.39;56.64
32197;BME280;18697;42.770;23.400;2023-05-25T00:03:51;95550.81;;;21.37;56.68
32197;BME280;18697;42.770;23.400;2023-05-25T00:06:17;95550.94;;;21.44;57.04
32197;BME280;18697;42.770;23.400;2023-05-25T00:08:44;95554.75;;;21.47;57.25
32197;BME280;18697;42.770;23.400;2023-05-25T00:11:10;95548.66;;;21.56;56.97
32197;BME280;18697;42.770;23.400;2023-05-25T00:13:37;95549.88;;;21.60;56.67
32197;BME280;18697;42.770;23.400;2023-05-25T00:16:03;95541.94;;;21.59;56.34
32197;BME280;18697;42.770;23.400;2023-05-25T00:18:28;95539.78;;;21.65;56.21
32197;BME280;18697;42.770;23.400;2023-05-25T00:20:54;95549.22;;;21.54;55.89
32197;BME280;18697;42.770;23.400;2023-05-25T00:23:19;95544.97;;;21.48;55.81
32197;BME280;18697;42.770;23.400;2023-05-25T00:25:45;95546.59;;;21.56;56.22
32197;BME280;18697;42.770;23.400;2023-05-25T00:28:11;95544.00;;;21.58;56.32
32197;BME280;18697;42.770;23.400;2023-05-25T00:30:36;95541.28;;;21.53;56.34
32197;BME280;18697;42.770;23.400;2023-05-25T00:33:02;95539.16;;;21.27;56.30
32197;BME280;18697;42.770;23.400;2023-05-25T00:35:27;95543.19;;;21.13;57.29
32197;BME280;18697;42.770;23.400;2023-05-25T00:37:53;95546.09;;;21.07;58.07
32197;BME280;18697;42.770;23.400;2023-05-25T00:40:18;95540.16;;;20.92;55.31
32197;BME280;18697;42.770;23.400;2023-05-25T00:42:44;95538.97;;;20.69;57.87
32197;BME280;18697;42.770;23.400;2023-05-25T00:45:10;95539.00;;;20.44;59.24
32197;BME280;18697;42.770;23.400;2023-05-25T00:47:36;95543.19;;;20.13;58.57
32197;BME280;18697;42.770;23.400;2023-05-25T00:50:02;95554.22;;;20.11;60.55
32197;BME280;18697;42.770;23.400;2023-05-25T00:52:32;95552.13;;;20.17;60.17
32197;BME280;18697;42.770;23.400;2023-05-25T00:54:58;95551.94;;;20.34;59.67
32197;BME280;18697;42.770;23.400;2023-05-25T00:57:27;95557.84;;;20.55;58.90
32197;BME280;18697;42.770;23.400;2023-05-25T00:59:54;95556.34;;;20.54;58.34
32197;BME280;18697;42.770;23.400;2023-05-25T01:02:22;95560.44;;;20.53;58.13
32197;BME280;18697;42.770;23.400;2023-05-25T01:04:52;95560.97;;;20.27;57.78
32197;BME280;18697;42.770;23.400;2023-05-25T01:07:21;95573.44;;;20.13;57.80
32197;BME280;18697;42.770;23.400;2023-05-25T01:09:48;95572.22;;;19.84;58.87
32197;BME280;18697;42.770;23.400;2023-05-25T01:12:15;95570.47;;;19.45;59.90
32197;BME280;18697;42.770;23.400;2023-05-25T01:14:42;95573.72;;;18.26;64.52
32197;BME280;18697;42.770;23.400;2023-05-25T01:17:10;95571.38;;;18.41;65.67
32197;BME280;18697;42.770;23.400;2023-05-25T01:19:36;95567.63;;;18.80;63.78
32197;BME280;18697;42.770;23.400;2023-05-25T01:22:22;95565.28;;;18.84;64.70
32197;BME280;18697;42.770;23.400;2023-05-25T01:24:58;95566.19;;;19.03;63.49
32197;BME280;18697;42.770;23.400;2023-05-25T01:27:45;95565.19;;;19.00;62.33
32197;BME280;18697;42.770;23.400;2023-05-25T01:30:13;95564.88;;;18.57;63.40
32197;BME280;18697;42.770;23.400;2023-05-25T01:32:44;95565.66;;;18.58;63.55
32197;BME280;18697;42.770;23.400;2023-05-25T01:35:10;95557.50;;;18.54;65.17
32197;BME280;18697;42.770;23.400;2023-05-25T01:37:37;95564.19;;;18.98;63.62
32197;BME280;18697;42.770;23.400;2023-05-25T01:40:04;95558.34;;;18.90;62.58
32197;BME280;18697;42.770;23.400;2023-05-25T01:42:30;95548.78;;;18.58;62.62
32197;BME280;18697;42.770;23.400;2023-05-25T01:44:55;95550.91;;;17.71;65.52
32197;BME280;18697;42.770;23.400;2023-05-25T01:50:03;95558.97;;;18.09;67.65
32197;BME280;18697;42.770;23.400;2023-05-25T01:52:44;95554.94;;;18.56;65.56
32197;BME280;18697;42.770;23.400;2023-05-25T01:55:14;95562.94;;;18.93;64.47
32197;BME280;18697;42.770;23.400;2023-05-25T01:57:45;95554.03;;;19.25;62.86
32197;BME280;18697;42.770;23.400;2023-05-25T02:00:14;95559.16;;;19.51;61.55
32197;BME280;18697;42.770;23.400;2023-05-25T02:02:41;95562.88;;;19.70;61.63
32197;BME280;18697;42.770;23.400;2023-05-25T02:05:08;95570.34;;;19.92;60.25
32197;BME280;18697;42.770;23.400;2023-05-25T02:07:35;95572.84;;;20.20;59.68
32197;BME280;18697;42.770;23.400;2023-05-25T02:10:00;95560.69;;;20.30;58.87
32197;BME280;18697;42.770;23.400;2023-05-25T02:12:26;95569.16;;;20.30;58.82
32197;BME280;18697;42.770;23.400;2023-05-25T02:14:51;95559.91;;;20.30;58.81
32197;BME280;18697;42.770;23.400;2023-05-25T02:17:16;95561.44;;;20.31;58.47
32197;BME280;18697;42.770;23.400;2023-05-25T02:19:42;95559.31;;;20.37;58.41
32197;BME280;18697;42.770;23.400;2023-05-25T02:22:09;95569.22;;;20.49;57.96
32197;BME280;18697;42.770;23.400;2023-05-25T02:24:34;95573.94;;;20.41;56.89
32197;BME280;18697;42.770;23.400;2023-05-25T02:27:00;95572.88;;;20.44;57.83
32197;BME280;18697;42.770;23.400;2023-05-25T02:29:26;95574.03;;;20.30;57.49
32197;BME280;18697;42.770;23.400;2023-05-25T02:31:51;95577.13;;;20.26;58.16
32197;BME280;18697;42.770;23.400;2023-05-25T02:34:17;95574.78;;;20.30;57.67
32197;BME280;18697;42.770;23.400;2023-05-25T02:36:43;95565.47;;;20.41;57.84
32197;BME280;18697;42.770;23.400;2023-05-25T02:39:09;95584.22;;;20.39;57.18
32197;BME280;18697;42.770;23.400;2023-05-25T02:41:35;95578.22;;;20.48;57.12
32197;BME280;18697;42.770;23.400;2023-05-25T02:44:00;95583.91;;;20.42;56.63
32197;BME280;18697;42.770;23.400;2023-05-25T02:46:26;95583.63;;;20.46;57.15
32197;BME280;18697;42.770;23.400;2023-05-25T02:48:51;95585.06;;;20.52;57.18
32197;BME280;18697;42.770;23.400;2023-05-25T02:51:17;95587.22;;;20.65;56.73
32197;BME280;18697;42.770;23.400;2023-05-25T02:53:42;95591.88;;;20.62;56.50
32197;BME280;18697;42.770;23.400;2023-05-25T02:56:07;95588.81;;;20.60;56.28
32197;BME280;18697;42.770;23.400;2023-05-25T02:58:35;95588.13;;;20.54;56.24
32197;BME280;18697;42.770;23.400;2023-05-25T03:01:00;95599.41;;;20.54;55.85
32197;BME280;18697;42.770;23.400;2023-05-25T03:03:26;95597.06;;;20.58;56.15
32197;BME280;18697;42.770;23.400;2023-05-25T03:05:52;95602.69;;;20.58;56.09
32197;BME280;18697;42.770;23.400;2023-05-25T03:08:17;95606.47;;;20.42;55.52
32197;BME280;18697;42.770;23.400;2023-05-25T03:10:43;95601.75;;;20.26;55.09
32197;BME280;18697;42.770;23.400;2023-05-25T03:13:09;95610.81;;;19.94;56.65
32197;BME280;18697;42.770;23.400;2023-05-25T03:15:34;95605.53;;;19.50;56.86
32197;BME280;18697;42.770;23.400;2023-05-25T03:18:00;95608.19;;;19.01;60.75
32197;BME280;18697;42.770;23.400;2023-05-25T03:20:28;95612.63;;;18.80;60.11
32197;BME280;18697;42.770;23.400;2023-05-25T03:22:54;95611.63;;;18.77;61.13
32197;BME280;18697;42.770;23.400;2023-05-25T03:25:20;95614.69;;;18.79;61.56
32197;BME280;18697;42.770;23.400;2023-05-25T03:27:45;95616.91;;;18.97;61.20
32197;BME280;18697;42.770;23.400;2023-05-25T03:30:11;95616.59;;;19.07;61.35
32197;BME280;18697;42.770;23.400;2023-05-25T03:32:37;95620.59;;;19.22;60.69
32197;BME280;18697;42.770;23.400;2023-05-25T03:35:04;95627.38;;;19.38;59.97
32197;BME280;18697;42.770;23.400;2023-05-25T03:37:29;95620.44;;;19.39;59.99
32197;BME280;18697;42.770;23.400;2023-05-25T03:39:55;95628.34;;;19.46;59.62
32197;BME280;18697;42.770;23.400;2023-05-25T03:42:20;95630.81;;;19.61;59.57
32197;BME280;18697;42.770;23.400;2023-05-25T03:44:46;95627.44;;;19.68;59.13
32197;BME280;18697;42.770;23.400;2023-05-25T03:47:11;95624.75;;;19.51;58.13
32197;BME280;18697;42.770;23.400;2023-05-25T03:49:37;95639.50;;;19.63;59.29
32197;BME280;18697;42.770;23.400;2023-05-25T03:52:03;95626.00;;;19.56;58.77
32197;BME280;18697;42.770;23.400;2023-05-25T03:54:30;95635.66;;;19.66;58.73
32197;BME280;18697;42.770;23.400;2023-05-25T03:56:55;95643.78;;;19.75;58.96
32197;BME280;18697;42.770;23.400;2023-05-25T03:59:22;95639.91;;;19.78;58.87
32197;BME280;18697;42.770;23.400;2023-05-25T04:01:49;95644.50;;;19.81;58.54
32197;BME280;18697;42.770;23.400;2023-05-25T04:04:14;95649.28;;;19.56;59.50
32197;BME280;18697;42.770;23.400;2023-05-25T04:06:40;95650.38;;;19.07;59.83
32197;BME280;18697;42.770;23.400;2023-05-25T04:09:06;95645.28;;;18.99;61.90
32197;BME280;18697;42.770;23.400;2023-05-25T04:11:32;95648.03;;;18.47;61.60
32197;BME280;18697;42.770;23.400;2023-05-25T04:13:57;95649.91;;;18.05;63.76
32197;BME280;18697;42.770;23.400;2023-05-25T04:16:24;95647.16;;;17.78;65.08
32197;BME280;18697;42.770;23.400;2023-05-25T04:18:50;95655.81;;;17.52;66.44
32197;BME280;18697;42.770;23.400;2023-05-25T04:21:16;95656.53;;;17.24;68.44
32197;BME280;18697;42.770;23.400;2023-05-25T04:23:41;95660.66;;;17.51;70.72
32197;BME280;18697;42.770;23.400;2023-05-25T04:26:07;95669.88;;;17.80;68.23
32197;BME280;18697;42.770;23.400;2023-05-25T04:28:34;95667.81;;;17.52;67.96
32197;BME280;18697;42.770;23.400;2023-05-25T04:31:01;95671.53;;;17.10;69.78
32197;BME280;18697;42.770;23.400;2023-05-25T04:33:28;95669.78;;;16.53;72.95
32197;BME280;18697;42.770;23.400;2023-05-25T04:35:56;95669.78;;;16.53;73.69
32197;BME280;18697;42.770;23.400;2023-05-25T04:38:25;95672.38;;;16.62;73.91
32197;BME280;18697;42.770;23.400;2023-05-25T04:40:51;95676.47;;;16.61;74.21
32197;BME280;18697;42.770;23.400;2023-05-25T04:43:20;95672.97;;;16.72;74.70
32197;BME280;18697;42.770;23.400;2023-05-25T04:45:45;95671.63;;;16.62;75.18
32197;BME280;18697;42.770;23.400;2023-05-25T04:48:11;95666.19;;;17.01;74.59
32197;BME280;18697;42.770;23.400;2023-05-25T04:50:38;95665.97;;;17.21;74.96
32197;BME280;18697;42.770;23.400;2023-05-25T04:53:04;95674.72;;;17.68;72.44
32197;BME280;18697;42.770;23.400;2023-05-25T04:55:30;95673.22;;;17.72;72.20
32197;BME280;18697;42.770;23.400;2023-05-25T04:57:55;95670.09;;;17.98;72.67
32197;BME280;18697;42.770;23.400;2023-05-25T05:00:21;95670.34;;;18.17;70.92
32197;BME280;18697;42.770;23.400;2023-05-25T05:02:46;95665.09;;;18.71;68.58
32197;BME280;18697;42.770;23.400;2023-05-25T05:05:12;95658.44;;;19.27;67.26
32197;BME280;18697;42.770;23.400;2023-05-25T05:07:37;95667.59;;;19.74;65.09
32197;BME280;18697;42.770;23.400;2023-05-25T05:10:03;95668.81;;;20.09;63.80
32197;BME280;18697;42.770;23.400;2023-05-25T05:12:28;95672.91;;;20.38;62.78
32197;BME280;18697;42.770;23.400;2023-05-25T05:14:54;95659.97;;;20.53;62.29
32197;BME280;18697;42.770;23.400;2023-05-25T05:17:20;95660.91;;;20.61;61.79
32197;BME280;18697;42.770;23.400;2023-05-25T05:19:47;95671.06;;;20.46;62.10
32197;BME280;18697;42.770;23.400;2023-05-25T05:22:12;95673.41;;;20.42;62.71
32197;BME280;18697;42.770;23.400;2023-05-25T05:24:40;95677.00;;;20.42;62.97
32197;BME280;18697;42.770;23.400;2023-05-25T05:27:05;95679.41;;;20.57;62.47
32197;BME280;18697;42.770;23.400;2023-05-25T05:29:31;95675.78;;;20.81;61.49
32197;BME280;18697;42.770;23.400;2023-05-25T05:31:58;95678.84;;;20.83;59.76
32197;BME280;18697;42.770;23.400;2023-05-25T05:34:24;95681.75;;;20.96;60.58
32197;BME280;18697;42.770;23.400;2023-05-25T05:36:51;95685.66;;;20.93;60.44
32197;BME280;18697;42.770;23.400;2023-05-25T05:39:16;95692.75;;;20.99;60.50
32197;BME280;18697;42.770;23.400;2023-05-25T05:41:41;95685.59;;;20.98;60.10
32197;BME280;18697;42.770;23.400;2023-05-25T05:44:10;95691.22;;;20.01;62.14
32197;BME280;18697;42.770;23.400;2023-05-25T05:46:36;95694.38;;;19.92;61.96
32197;BME280;18697;42.770;23.400;2023-05-25T05:49:02;95690.66;;;19.73;63.44
32197;BME280;18697;42.770;23.400;2023-05-25T05:51:28;95687.66;;;19.65;64.59
32197;BME280;18697;42.770;23.400;2023-05-25T05:53:53;95679.06;;;19.82;64.66
32197;BME280;18697;42.770;23.400;2023-05-25T05:56:19;95684.34;;;19.96;64.09
32197;BME280;18697;42.770;23.400;2023-05-25T05:58:44;95684.06;;;20.24;63.08
32197;BME280;18697;42.770;23.400;2023-05-25T06:01:12;95686.03;;;19.75;64.27
32197;BME280;18697;42.770;23.400;2023-05-25T06:03:38;95677.13;;;19.65;65.22
32197;BME280;18697;42.770;23.400;2023-05-25T06:06:04;95676.59;;;20.02;64.16
32197;BME280;18697;42.770;23.400;2023-05-25T06:08:29;95681.50;;;19.96;64.58
32197;BME280;18697;42.770;23.400;2023-05-25T06:10:55;95679.72;;;19.63;65.00
32197;BME280;18697;42.770;23.400;2023-05-25T06:13:20;95682.03;;;19.95;64.86
32197;BME280;18697;42.770;23.400;2023-05-25T06:15:46;95680.94;;;20.28;64.15
32197;BME280;18697;42.770;23.400;2023-05-25T06:18:12;95692.41;;;20.41;63.49
32197;BME280;18697;42.770;23.400;2023-05-25T06:20:37;95682.88;;;20.14;63.91
32197;BME280;18697;42.770;23.400;2023-05-25T06:23:02;95683.97;;;20.06;64.06
32197;BME280;18697;42.770;23.400;2023-05-25T06:25:28;95682.94;;;20.39;63.60
32197;BME280;18697;42.770;23.400;2023-05-25T06:27:53;95684.69;;;20.42;64.23
32197;BME280;18697;42.770;23.400;2023-05-25T06:30:18;95689.94;;;20.56;63.23
32197;BME280;18697;42.770;23.400;2023-05-25T06:32:44;95679.16;;;20.98;61.84
32197;BME280;18697;42.770;23.400;2023-05-25T06:35:09;95683.03;;;21.38;61.20
32197;BME280;18697;42.770;23.400;2023-05-25T06:37:41;95689.34;;;21.63;60.68
32197;BME280;18697;42.770;23.400;2023-05-25T06:40:07;95675.50;;;21.78;59.90
32197;BME280;18697;42.770;23.400;2023-05-25T06:42:35;95675.09;;;21.87;59.79
32197;BME280;18697;42.770;23.400;2023-05-25T06:45:02;95685.09;;;22.07;59.70
32197;BME280;18697;42.770;23.400;2023-05-25T06:47:28;95679.88;;;22.11;58.59
32197;BME280;18697;42.770;23.400;2023-05-25T06:49:53;95680.47;;;21.72;59.80
32197;BME280;18697;42.770;23.400;2023-05-25T06:52:18;95681.34;;;21.99;59.29
32197;BME280;18697;42.770;23.400;2023-05-25T06:54:44;95680.13;;;22.26;58.37
32197;BME280;18697;42.770;23.400;2023-05-25T06:57:09;95692.44;;;22.42;58.79
32197;BME280;18697;42.770;23.400;2023-05-25T06:59:34;95694.91;;;22.33;58.33
32197;BME280;18697;42.770;23.400;2023-05-25T07:02:00;95688.94;;;22.36;57.71
32197;BME280;18697;42.770;23.400;2023-05-25T07:04:25;95695.22;;;22.29;58.58
32197;BME280;18697;42.770;23.400;2023-05-25T07:06:52;95689.25;;;22.33;58.50
32197;BME280;18697;42.770;23.400;2023-05-25T07:09:17;95685.56;;;22.38;58.57
32197;BME280;18697;42.770;23.400;2023-05-25T07:11:43;95679.59;;;22.41;57.79
32197;BME280;18697;42.770;23.400;2023-05-25T07:14:08;95680.44;;;22.36;58.87
32197;BME280;18697;42.770;23.400;2023-05-25T07:16:34;95680.44;;;22.36;58.73
32197;BME280;18697;42.770;23.400;2023-05-25T07:18:59;95675.09;;;22.33;59.32
32197;BME280;18697;42.770;23.400;2023-05-25T07:21:24;95676.84;;;22.36;58.08
32197;BME280;18697;42.770;23.400;2023-05-25T07:23:51;95687.31;;;22.41;58.33
32197;BME280;18697;42.770;23.400;2023-05-25T07:26:16;95680.88;;;22.40;58.70
32197;BME280;18697;42.770;23.400;2023-05-25T07:28:41;95678.94;;;22.35;58.99
32197;BME280;18697;42.770;23.400;2023-05-25T07:31:08;95691.22;;;22.24;59.36
32197;BME280;18697;42.770;23.400;2023-05-25T07:33:34;95698.94;;;22.24;60.01
32197;BME280;18697;42.770;23.400;2023-05-25T07:36:00;95701.75;;;22.11;60.62
32197;BME280;18697;42.770;23.400;2023-05-25T07:38:25;95701.59;;;22.03;60.72
32197;BME280;18697;42.770;23.400;2023-05-25T07:40:50;95702.69;;;21.81;61.57
32197;BME280;18697;42.770;23.400;2023-05-25T07:43:16;95706.31;;;21.63;62.17
32197;BME280;18697;42.770;23.400;2023-05-25T07:45:42;95697.19;;;21.14;62.37
32197;BME280;18697;42.770;23.400;2023-05-25T07:48:07;95706.94;;;20.94;63.48
32197;BME280;18697;42.770;23.400;2023-05-25T07:50:34;95710.56;;;20.70;65.40
32197;BME280;18697;42.770;23.400;2023-05-25T07:52:59;95715.50;;;20.40;66.73
32197;BME280;18697;42.770;23.400;2023-05-25T07:55:25;95722.88;;;20.13;68.00
32197;BME280;18697;42.770;23.400;2023-05-25T07:57:51;95721.53;;;19.89;69.06
32197;BME280;18697;42.770;23.400;2023-05-25T08:00:17;95735.47;;;19.76;69.60
32197;BME280;18697;42.770;23.400;2023-05-25T08:02:42;95737.34;;;19.62;70.12
32197;BME280;18697;42.770;23.400;2023-05-25T08:05:08;95743.94;;;19.29;72.07
32197;BME280;18697;42.770;23.400;2023-05-25T08:07:37;95749.09;;;19.14;74.38
32197;BME280;18697;42.770;23.400;2023-05-25T08:10:04;95757.59;;;19.03;76.63
32197;BME280;18697;42.770;23.400;2023-05-25T08:12:31;95761.97;;;18.93;77.33
32197;BME280;18697;42.770;23.400;2023-05-25T08:14:56;95769.59;;;19.09;77.45
32197;BME280;18697;42.770;23.400;2023-05-25T08:17:22;95775.47;;;19.17;78.09
32197;BME280;18697;42.770;23.400;2023-05-25T08:19:47;95778.78;;;19.15;77.00
32197;BME280;18697;42.770;23.400;2023-05-25T08:22:12;95775.97;;;19.15;76.90
32197;BME280;18697;42.770;23.400;2023-05-25T08:24:38;95778.78;;;19.21;78.16
32197;BME280;18697;42.770;23.400;2023-05-25T08:27:03;95779.56;;;19.10;76.46
32197;BME280;18697;42.770;23.400;2023-05-25T08:29:29;95786.47;;;19.15;77.08
32197;BME280;18697;42.770;23.400;2023-05-25T08:31:55;95788.00;;;19.21;76.55
32197;BME280;18697;42.770;23.400;2023-05-25T08:34:21;95787.66;;;19.36;75.88
32197;BME280;18697;42.770;23.400;2023-05-25T08:36:46;95794.94;;;19.67;73.84
32197;BME280;18697;42.770;23.400;2023-05-25T08:39:12;95789.19;;;19.89;72.96
32197;BME280;18697;42.770;23.400;2023-05-25T08:41:44;95794.41;;;20.10;72.69
32197;BME280;18697;42.770;23.400;2023-05-25T08:44:10;95789.44;;;20.21;72.13
32197;BME280;18697;42.770;23.400;2023-05-25T08:46:36;95785.31;;;20.28;71.33
32197;BME280;18697;42.770;23.400;2023-05-25T08:49:09;95781.38;;;20.42;71.58
32197;BME280;18697;42.770;23.400;2023-05-25T08:51:36;95787.50;;;20.46;72.25
32197;BME280;18697;42.770;23.400;2023-05-25T08:54:11;95788.06;;;20.39;71.96
32197;BME280;18697;42.770;23.400;2023-05-25T08:57:08;95785.72;;;20.43;71.52
32197;BME280;18697;42.770;23.400;2023-05-25T09:02:29;95784.63;;;20.52;70.96
32197;BME280;18697;42.770;23.400;2023-05-25T09:04:55;95775.16;;;20.49;71.86
32197;BME280;18697;42.770;23.400;2023-05-25T09:07:22;95781.81;;;20.52;72.43
32197;BME280;18697;42.770;23.400;2023-05-25T09:09:49;95779.25;;;20.48;71.55
32197;BME280;18697;42.770;23.400;2023-05-25T09:12:14;95786.91;;;20.53;72.72
32197;BME280;18697;42.770;23.400;2023-05-25T09:14:40;95778.94;;;20.57;71.71
32197;BME280;18697;42.770;23.400;2023-05-25T09:17:11;95775.28;;;20.62;71.82
32197;BME280;18697;42.770;23.400;2023-05-25T09:19:37;95767.19;;;20.78;71.22
32197;BME280;18697;42.770;23.400;2023-05-25T09:22:03;95765.50;;;20.88;70.50
32197;BME280;18697;42.770;23.400;2023-05-25T09:24:28;95748.72;;;20.77;72.13
32197;BME280;18697;42.770;23.400;2023-05-25T09:26:54;95765.91;;;20.79;71.87
32197;BME280;18697;42.770;23.400;2023-05-25T09:29:19;95752.22;;;20.83;72.37
32197;BME280;18697;42.770;23.400;2023-05-25T09:31:45;95757.56;;;20.86;71.02
32197;BME280;18697;42.770;23.400;2023-05-25T09:34:12;95760.81;;;20.96;71.82
32197;BME280;18697;42.770;23.400;2023-05-25T09:36:38;95763.16;;;20.92;71.93
32197;BME280;18697;42.770;23.400;2023-05-25T09:39:09;95753.06;;;20.78;72.38
32197;BME280;18697;42.770;23.400;2023-05-25T09:41:35;95755.19;;;20.72;72.64
32197;BME280;18697;42.770;23.400;2023-05-25T09:44:01;95759.78;;;20.75;72.59
32197;BME280;18697;42.770;23.400;2023-05-25T09:46:26;95755.91;;;20.78;73.32
32197;BME280;18697;42.770;23.400;2023-05-25T09:48:53;95742.13;;;20.69;74.69
32197;BME280;18697;42.770;23.400;2023-05-25T09:51:19;95748.84;;;20.65;76.10
32197;BME280;18697;42.770;23.400;2023-05-25T09:53:46;95751.72;;;20.60;75.26
32197;BME280;18697;42.770;23.400;2023-05-25T09:56:11;95747.66;;;20.55;72.80
32197;BME280;18697;42.770;23.400;2023-05-25T09:58:37;95737.50;;;20.71;71.76
32197;BME280;18697;42.770;23.400;2023-05-25T10:01:02;95748.09;;;20.84;71.81
32197;BME280;18697;42.770;23.400;2023-05-25T10:03:29;95735.53;;;20.85;71.16
32197;BME280;18697;42.770;23.400;2023-05-25T10:05:55;95739.53;;;20.95;71.43
32197;BME280;18697;42.770;23.400;2023-05-25T10:08:21;95733.81;;;21.00;70.94
32197;BME280;18697;42.770;23.400;2023-05-25T10:10:48;95722.69;;;21.08;70.00
32197;BME280;18697;42.770;23.400;2023-05-25T10:13:15;95720.25;;;21.18;69.14
32197;BME280;18697;42.770;23.400;2023-05-25T10:15:44;95713.28;;;21.24;69.99
32197;BME280;18697;42.770;23.400;2023-05-25T10:18:12;95701.22;;;21.24;71.74
32197;BME280;18697;42.770;23.400;2023-05-25T10:20:38;95701.47;;;21.20;70.17
32197;BME280;18697;42.770;23.400;2023-05-25T10:23:09;95699.38;;;21.26;69.63
32197;BME280;18697;42.770;23.400;2023-05-25T10:25:40;95698.63;;;21.26;69.75
32197;BME280;18697;42.770;23.400;2023-05-25T10:28:21;95696.09;;;21.22;69.71
32197;BME280;18697;42.770;23.400;2023-05-25T10:30:50;95689.72;;;21.16;69.41
32197;BME280;18697;42.770;23.400;2023-05-25T10:33:18;95687.91;;;21.19;70.12
32197;BME280;18697;42.770;23.400;2023-05-25T10:35:45;95688.44;;;21.17;70.13
32197;BME280;18697;42.770;23.400;2023-05-25T10:38:11;95687.72;;;21.11;70.84
32197;BME280;18697;42.770;23.400;2023-05-25T10:40:37;95686.66;;;21.14;70.51
32197;BME280;18697;42.770;23.400;2023-05-25T10:43:04;95700.44;;;21.23;69.74
32197;BME280;18697;42.770;23.400;2023-05-25T10:45:30;95694.78;;;21.23;69.61
32197;BME280;18697;42.770;23.400;2023-05-25T10:47:56;95687.97;;;21.13;69.21
32197;BME280;18697;42.770;23.400;2023-05-25T10:50:24;95684.38;;;21.13;69.95
32197;BME280;18697;42.770;23.400;2023-05-25T10:53:02;95685.75;;;21.06;70.06
32197;BME280;18697;42.770;23.400;2023-05-25T10:55:28;95680.63;;;21.05;71.57
32197;BME280;18697;42.770;23.400;2023-05-25T10:58:07;95687.28;;;21.07;72.32
32197;BME280;18697;42.770;23.400;2023-05-25T11:00:33;95674.97;;;21.05;72.00
32197;BME280;18697;42.770;23.400;2023-05-25T11:02:59;95680.84;;;21.07;70.96
32197;BME280;18697;42.770;23.400;2023-05-25T11:07:54;95674.19;;;21.28;70.68
32197;BME280;18697;42.770;23.400;2023-05-25T11:10:42;95676.03;;;21.02;71.64
32197;BME280;18697;42.770;23.400;2023-05-25T11:18:37;95668.63;;;20.80;71.17
32197;BME280;18697;42.770;23.400;2023-05-25T11:21:40;95671.22;;;20.78;71.16
32197;BME280;18697;42.770;23.400;2023-05-25T11:24:16;95672.81;;;20.92;72.44
32197;BME280;18697;42.770;23.400;2023-05-25T11:26:58;95683.66;;;20.88;73.91
32197;BME280;18697;42.770;23.400;2023-05-25T11:29:29;95675.88;;;20.94;71.64
32197;BME280;18697;42.770;23.400;2023-05-25T11:31:55;95680.16;;;21.00;72.21
32197;BME280;18697;42.770;23.400;2023-05-25T11:34:22;95686.31;;;21.23;71.95
32197;BME280;18697;42.770;23.400;2023-05-25T11:36:55;95694.03;;;21.42;72.15
32197;BME280;18697;42.770;23.400;2023-05-25T11:39:30;95684.50;;;21.45;71.30
32197;BME280;18697;42.770;23.400;2023-05-25T11:42:01;95679.09;;;21.60;71.73
32197;BME280;18697;42.770;23.400;2023-05-25T11:44:29;95677.63;;;21.72;69.65
32197;BME280;18697;42.770;23.400;2023-05-25T11:46:59;95670.59;;;21.79;70.04
32197;BME280;18697;42.770;23.400;2023-05-25T11:49:26;95667.06;;;21.91;68.75
32197;BME280;18697;42.770;23.400;2023-05-25T11:51:56;95664.16;;;21.97;68.56
32197;BME280;18697;42.770;23.400;2023-05-25T11:54:30;95661.25;;;22.03;69.86
32197;BME280;18697;42.770;23.400;2023-05-25T11:56:56;95657.56;;;22.08;69.16
32197;BME280;18697;42.770;23.400;2023-05-25T11:59:28;95655.63;;;22.16;68.92
32197;BME280;18697;42.770;23.400;2023-05-25T12:02:03;95657.81;;;22.36;70.59
32197;BME280;18697;42.770;23.400;2023-05-25T12:04:29;95660.88;;;22.51;70.12
32197;BME280;18697;42.770;23.400;2023-05-25T12:07:06;95657.72;;;22.68;68.49
32197;BME280;18697;42.770;23.400;2023-05-25T12:09:33;95656.31;;;22.75;67.90
32197;BME280;18697;42.770;23.400;2023-05-25T12:11:59;95648.50;;;22.81;65.77
32197;BME280;18697;42.770;23.400;2023-05-25T12:14:26;95647.81;;;22.75;65.37
32197;BME280;18697;42.770;23.400;2023-05-25T12:16:52;95644.13;;;22.67;63.01
32197;BME280;18697;42.770;23.400;2023-05-25T12:19:18;95648.19;;;22.84;64.73
32197;BME280;18697;42.770;23.400;2023-05-25T12:21:45;95644.16;;;22.80;61.54
32197;BME280;18697;42.770;23.400;2023-05-25T12:24:11;95636.09;;;22.84;63.12
32197;BME280;18697;42.770;23.400;2023-05-25T12:26:51;95633.69;;;23.01;62.34
32197;BME280;18697;42.770;23.400;2023-05-25T12:29:23;95624.53;;;22.95;63.22
32197;BME280;18697;42.770;23.400;2023-05-25T12:31:50;95617.78;;;22.98;62.15
32197;BME280;18697;42.770;23.400;2023-05-25T12:34:17;95620.56;;;23.11;60.79
32197;BME280;18697;42.770;23.400;2023-05-25T12:39:14;95613.75;;;23.27;59.85
32197;BME280;18697;42.770;23.400;2023-05-25T12:41:50;95612.28;;;23.47;60.42
32197;BME280;18697;42.770;23.400;2023-05-25T12:46:46;95602.03;;;23.57;56.03
32197;BME280;18697;42.770;23.400;2023-05-25T12:51:47;95603.75;;;23.81;57.35
32197;BME280;18697;42.770;23.400;2023-05-25T12:54:12;95585.22;;;23.59;57.73
32197;BME280;18697;42.770;23.400;2023-05-25T12:56:54;95584.47;;;23.59;55.56
32197;BME280;18697;42.770;23.400;2023-05-25T12:59:20;95580.28;;;23.81;57.18
32197;BME280;18697;42.770;23.400;2023-05-25T13:01:46;95569.75;;;23.61;58.01
32197;BME280;18697;42.770;23.400;2023-05-25T13:04:11;95566.22;;;23.68;56.11
32197;BME280;18697;42.770;23.400;2023-05-25T13:06:36;95566.91;;;23.61;57.29
32197;BME280;18697;42.770;23.400;2023-05-25T13:09:02;95556.59;;;23.71;54.03
32197;BME280;18697;42.770;23.400;2023-05-25T13:11:28;95557.56;;;23.73;56.58